createdAt,value
2022-11-26T00:00:58.416Z,96.44
2022-11-26T00:02:59.509Z,96.41
2022-11-26T00:05:00.718Z,96.43
2022-11-26T00:07:01.936Z,96.4
2022-11-26T00:09:03.430Z,96.46
2022-11-26T00:11:04.439Z,96.42
2022-11-26T00:13:06.200Z,96.61
2022-11-26T00:17:09.089Z,96.72
2022-11-26T00:19:10.705Z,96.86
2022-11-26T00:21:12.199Z,96.89
2022-11-26T00:23:13.255Z,96.87
2022-11-26T00:25:59.046Z,96.83
2022-11-26T00:28:00.142Z,96.73
2022-11-26T00:30:01.331Z,96.78
2022-11-26T00:32:02.576Z,96.98
2022-11-26T00:34:04.364Z,96.99
2022-11-26T00:38:07.168Z,97.27
2022-11-26T00:40:08.548Z,97.24
2022-11-26T00:42:09.749Z,97.18
2022-11-26T00:44:11.499Z,97.28
2022-11-26T00:46:13.500Z,97.44
2022-11-26T00:48:14.435Z,97.35
2022-11-26T00:50:16.329Z,97.34
2022-11-26T00:52:18.138Z,97.38
2022-11-26T00:54:19.694Z,97.41
2022-11-26T00:56:20.705Z,97.54
2022-11-26T00:58:22.511Z,97.55
2022-11-26T01:00:24.167Z,97.57
2022-11-26T01:02:25.688Z,97.57
2022-11-26T01:04:27.460Z,97.6
2022-11-26T01:06:28.686Z,97.54
2022-11-26T01:08:30.368Z,97.5
2022-11-26T01:10:31.372Z,97.4
2022-11-26T01:12:33.193Z,97.38
2022-11-26T01:14:34.939Z,97.31
2022-11-26T01:16:36.479Z,97.25
2022-11-26T01:20:39.182Z,97.08
2022-11-26T01:22:40.994Z,97.06
2022-11-26T01:24:42.657Z,97.07
2022-11-26T01:26:44.062Z,97.06
2022-11-26T01:28:45.237Z,97.19
2022-11-26T01:30:46.325Z,97.22
2022-11-26T01:32:47.479Z,97.16
2022-11-26T01:34:49.309Z,97.11
2022-11-26T01:36:51.008Z,97.14
2022-11-26T01:38:52.751Z,97.22
2022-11-26T01:42:55.573Z,97.31
2022-11-26T01:44:57.318Z,97.38
2022-11-26T01:46:59.122Z,97.33
2022-11-26T01:49:00.651Z,97.52
2022-11-26T01:53:03.586Z,97.47
2022-11-26T01:55:04.920Z,97.51
2022-11-26T01:57:06.807Z,97.63
2022-11-26T01:59:08.386Z,97.66
2022-11-26T02:01:09.380Z,97.75
2022-11-26T02:03:10.885Z,97.77
2022-11-26T02:05:12.625Z,97.7
2022-11-26T02:07:14.018Z,97.71
2022-11-26T02:09:15.944Z,97.73
2022-11-26T02:11:17.584Z,97.64
2022-11-26T02:13:19.519Z,97.69
2022-11-26T02:15:21.385Z,97.73
2022-11-26T02:17:23.312Z,97.7
2022-11-26T02:19:25.038Z,97.56
2022-11-26T02:21:26.560Z,97.73
2022-11-26T02:25:29.197Z,97.83
2022-11-26T02:27:30.658Z,97.79
2022-11-26T02:29:32.271Z,97.78
2022-11-26T02:31:33.775Z,97.82
2022-11-26T02:35:36.259Z,97.87
2022-11-26T02:37:46.222Z,97.88
2022-11-26T02:39:39.454Z,98.01
2022-11-26T02:41:40.626Z,97.98
2022-11-26T02:43:42.191Z,97.99
2022-11-26T02:45:44.200Z,98.07
2022-11-26T02:47:45.568Z,98.36
2022-11-26T02:49:47.208Z,98.46
2022-11-26T02:51:48.911Z,98.33
2022-11-26T02:53:50.453Z,98.32
2022-11-26T02:55:51.822Z,98.26
2022-11-26T02:57:53.683Z,98.31
2022-11-26T02:59:55.404Z,98.23
2022-11-26T03:01:56.888Z,98.13
2022-11-26T03:03:58.170Z,98.12
2022-11-26T03:05:59.484Z,98.27
2022-11-26T03:08:01.433Z,98.22
2022-11-26T03:10:02.990Z,98.38
2022-11-26T03:12:04.381Z,98.37
2022-11-26T03:14:06.195Z,98.51
2022-11-26T03:18:09.626Z,98.43
2022-11-26T03:20:11.424Z,98.5
2022-11-26T03:22:12.450Z,98.47
2022-11-26T03:24:14.373Z,98.43
2022-11-26T03:26:15.560Z,98.55
2022-11-26T03:28:17.136Z,98.57
2022-11-26T03:30:18.905Z,98.46
2022-11-26T03:32:19.934Z,98.48
2022-11-26T03:34:21.485Z,98.42
2022-11-26T03:36:23.098Z,98.48
2022-11-26T03:38:24.236Z,98.47
2022-11-26T03:40:25.389Z,98.39
2022-11-26T03:42:26.814Z,98.35
2022-11-26T03:44:28.296Z,98.42
2022-11-26T03:46:29.862Z,98.37
2022-11-26T03:48:31.200Z,98.3
2022-11-26T03:50:32.801Z,98.34
2022-11-26T03:52:34.605Z,98.3
2022-11-26T03:54:36.546Z,98.4
2022-11-26T03:56:37.781Z,98.59
2022-11-26T04:00:40.916Z,98.59
2022-11-26T04:02:42.749Z,98.56
2022-11-26T04:04:44.429Z,98.56
2022-11-26T04:06:45.473Z,98.54
2022-11-26T04:08:46.866Z,98.45
2022-11-26T04:10:48.118Z,98.3
2022-11-26T04:12:49.341Z,98.36
2022-11-26T04:14:51.276Z,98.24
2022-11-26T04:16:53.208Z,98.01
2022-11-26T04:18:54.852Z,98.03
2022-11-26T04:20:56.781Z,98.11
2022-11-26T04:22:58.377Z,98.13
2022-11-26T04:24:59.502Z,98.11
2022-11-26T04:27:00.578Z,98.09
2022-11-26T04:29:02.320Z,97.99
2022-11-26T04:31:03.318Z,98
2022-11-26T04:33:04.935Z,97.93
2022-11-26T04:35:06.858Z,97.99
2022-11-26T04:37:08.354Z,98.06
2022-11-26T04:39:09.945Z,97.98
2022-11-26T04:43:13.386Z,97.96
2022-11-26T04:45:14.491Z,97.96
2022-11-26T04:47:16.489Z,98.23
2022-11-26T04:49:18.480Z,98.36
2022-11-26T04:51:20.007Z,98.41
2022-11-26T04:53:21.930Z,98.49
2022-11-26T04:55:23.342Z,98.61
2022-11-26T04:57:24.378Z,98.57
2022-11-26T04:59:25.620Z,98.66
2022-11-26T05:01:27.217Z,98.58
2022-11-26T05:03:28.408Z,98.56
2022-11-26T05:05:29.415Z,98.51
2022-11-26T05:07:30.821Z,98.42
2022-11-26T05:09:31.938Z,98.39
2022-11-26T05:11:33.313Z,98.32
2022-11-26T05:15:36.479Z,98.39
2022-11-26T05:17:38.372Z,98.38
2022-11-26T05:19:39.969Z,98.44
2022-11-26T05:21:41.117Z,98.49
2022-11-26T05:25:44.180Z,98.49
2022-11-26T05:27:45.727Z,98.49
2022-11-26T05:29:46.886Z,98.44
2022-11-26T05:31:48.191Z,98.46
2022-11-26T05:33:49.158Z,98.45
2022-11-26T05:35:50.768Z,98.49
2022-11-26T05:37:52.535Z,98.46
2022-11-26T05:39:54.317Z,98.43
2022-11-26T05:41:56.185Z,98.41
2022-11-26T05:43:57.287Z,98.37
2022-11-26T05:45:59.069Z,98.39
2022-11-26T05:48:00.030Z,98.39
2022-11-26T05:50:01.128Z,98.34
2022-11-26T05:52:03.092Z,98.26
2022-11-26T05:56:06.451Z,98.37
2022-11-26T05:58:07.787Z,98.37
2022-11-26T06:00:09.690Z,98.47
2022-11-26T06:02:11.521Z,98.46
2022-11-26T06:04:13.154Z,98.38
2022-11-26T06:06:14.183Z,98.27
2022-11-26T06:08:16.042Z,98.19
2022-11-26T06:10:17.120Z,98.18
2022-11-26T06:14:19.995Z,98.47
2022-11-26T06:16:21.547Z,98.43
2022-11-26T06:18:22.492Z,98.35
2022-11-26T06:20:24.184Z,98.43
2022-11-26T06:24:27.110Z,98.55
2022-11-26T06:26:28.992Z,98.42
2022-11-26T06:28:30.574Z,98.38
2022-11-26T06:30:32.166Z,98.38
2022-11-26T06:32:33.624Z,98.38
2022-11-26T06:34:35.363Z,98.39
2022-11-26T06:36:36.983Z,98.34
2022-11-26T06:38:38.719Z,98.31
2022-11-26T06:40:40.572Z,98.31
2022-11-26T06:42:42.489Z,98.35
2022-11-26T06:44:43.447Z,98.36
2022-11-26T06:46:44.980Z,98.37
2022-11-26T06:48:46.185Z,98.37
2022-11-26T06:50:47.490Z,98.41
2022-11-26T06:52:48.754Z,98.39
2022-11-26T06:56:50.902Z,98.36
2022-11-26T06:58:52.043Z,98.37
2022-11-26T07:00:53.310Z,98.35
2022-11-26T07:02:54.624Z,98.33
2022-11-26T07:06:57.830Z,98.3
2022-11-26T07:08:58.953Z,98.33
2022-11-26T07:09:42.793Z,98.33
2022-11-26T07:11:44.655Z,98.34
2022-11-26T07:13:45.999Z,98.33
2022-11-26T07:15:47.612Z,98.32
2022-11-26T07:17:48.948Z,98.32
2022-11-26T07:19:50.234Z,98.33
2022-11-26T07:21:51.418Z,98.34
2022-11-26T07:23:53.131Z,98.33
2022-11-26T07:25:54.264Z,98.33
2022-11-26T07:27:55.985Z,98.34
2022-11-26T07:29:57.830Z,98.32
2022-11-26T07:31:59.238Z,98.31
2022-11-26T07:34:00.986Z,98.32
2022-11-26T07:36:01.987Z,98.3
2022-11-26T07:38:03.227Z,98.32
2022-11-26T07:40:04.431Z,98.33
2022-11-26T07:44:07.195Z,98.33
2022-11-26T07:46:08.568Z,98.33
2022-11-26T07:48:12.711Z,98.33
2022-11-26T07:50:11.298Z,98.33
2022-11-26T07:52:12.438Z,98.35
2022-11-26T07:54:13.725Z,98.34
2022-11-26T07:56:15.062Z,98.3
2022-11-26T07:58:16.256Z,98.28
2022-11-26T08:00:17.780Z,98.29
2022-11-26T08:02:19.257Z,98.27
2022-11-26T08:04:20.552Z,98.28
2022-11-26T08:06:21.981Z,98.25
2022-11-26T08:08:22.959Z,98.21
2022-11-26T08:10:24.839Z,98.2
2022-11-26T08:12:26.661Z,98.19
2022-11-26T08:14:27.669Z,98.18
2022-11-26T08:16:29.502Z,98.21
2022-11-26T08:18:31.091Z,98.2
2022-11-26T08:20:32.798Z,98.21
2022-11-26T08:22:34.493Z,98.22
2022-11-26T08:24:35.835Z,98.24
2022-11-26T08:26:42.501Z,98.25
2022-11-26T08:28:39.195Z,98.23
2022-11-26T08:32:41.901Z,98.28
2022-11-26T08:34:43.454Z,98.28
2022-11-26T08:36:44.904Z,98.27
2022-11-26T08:38:46.427Z,98.27
2022-11-26T08:42:49.790Z,98.27
2022-11-26T08:44:51.433Z,98.3
2022-11-26T08:46:52.401Z,98.22
2022-11-26T08:48:54.125Z,98.21
2022-11-26T08:50:55.605Z,98.2
2022-11-26T08:52:56.487Z,98.19
2022-11-26T08:54:58.287Z,98.19
2022-11-26T08:57:00.085Z,98.13
2022-11-26T08:59:01.380Z,98.05
2022-11-26T09:01:03.013Z,97.97
2022-11-26T09:03:04.721Z,97.98
2022-11-26T09:05:06.554Z,97.95
2022-11-26T09:07:07.765Z,97.94
2022-11-26T09:09:08.755Z,97.94
2022-11-26T09:11:10.212Z,97.81
2022-11-26T09:13:11.879Z,97.78
2022-11-26T09:15:13.040Z,97.68
2022-11-26T09:17:14.298Z,97.65
2022-11-26T09:19:15.810Z,97.58
2022-11-26T09:21:17.707Z,97.54
2022-11-26T09:25:21.501Z,97.45
2022-11-26T09:27:22.867Z,97.46
2022-11-26T09:29:24.386Z,97.34
2022-11-26T09:31:25.726Z,97.27
2022-11-26T09:33:26.796Z,97.19
2022-11-26T09:35:28.535Z,97.21
2022-11-26T09:37:30.162Z,97.11
2022-11-26T09:39:32.101Z,96.95
2022-11-26T09:41:33.730Z,96.57
2022-11-26T09:43:34.937Z,96.3
2022-11-26T09:45:36.470Z,95.98
2022-11-26T09:47:38.307Z,95.78
2022-11-26T09:49:39.588Z,95.78
2022-11-26T09:51:40.899Z,95.71
2022-11-26T09:53:42.548Z,95.57
2022-11-26T09:55:44.073Z,95.53
2022-11-26T09:57:45.732Z,95.45
2022-11-26T09:59:47.263Z,95.29
2022-11-26T10:01:48.569Z,95.22
2022-11-26T10:03:49.927Z,95.26
2022-11-26T10:07:52.854Z,95.09
2022-11-26T10:09:54.382Z,95.12
2022-11-26T10:11:55.748Z,94.66
2022-11-26T10:13:57.508Z,94.79
2022-11-26T10:15:59.330Z,94.77
2022-11-26T10:18:00.512Z,94.63
2022-11-26T10:20:01.576Z,94.26
2022-11-26T10:22:02.803Z,94.01
2022-11-26T10:24:04.273Z,93.23
2022-11-26T10:26:05.681Z,93.15
2022-11-26T10:28:06.950Z,93.47
2022-11-26T10:30:08.557Z,93.3
2022-11-26T10:32:09.811Z,93.33
2022-11-26T10:34:10.998Z,93.6
2022-11-26T10:36:12.426Z,93.26
2022-11-26T10:40:15.322Z,93.18
2022-11-26T10:42:16.894Z,93.19
2022-11-26T10:44:18.631Z,93.21
2022-11-26T10:46:20.561Z,93.33
2022-11-26T10:52:24.537Z,93.68
2022-11-26T10:54:26.161Z,93.06
2022-11-26T10:56:27.221Z,92.79
2022-11-26T10:58:28.289Z,92.23
2022-11-26T11:00:30.104Z,92.05
2022-11-26T11:02:31.984Z,92.33
2022-11-26T11:04:33.428Z,92.24
2022-11-26T11:06:34.449Z,91.91
2022-11-26T11:08:35.685Z,91.45
2022-11-26T11:10:37.099Z,91.24
2022-11-26T11:12:38.072Z,91.75
2022-11-26T11:14:42.913Z,91.51
2022-11-26T11:16:41.093Z,90.78
2022-11-26T11:18:43.892Z,91.21
2022-11-26T11:20:44.393Z,91.35
2022-11-26T11:22:45.265Z,88.8
2022-11-26T11:24:46.914Z,89.93
2022-11-26T11:26:48.464Z,88.75
2022-11-26T11:28:49.634Z,89.46
2022-11-26T11:30:51.002Z,88.99
2022-11-26T11:32:52.034Z,88.72
2022-11-26T11:34:53.508Z,89.24
2022-11-26T11:38:55.862Z,89.12
2022-11-26T11:40:57.395Z,90.19
2022-11-26T11:42:58.684Z,89.82
2022-11-26T11:45:00.454Z,90.12
2022-11-26T11:49:03.762Z,91
2022-11-26T11:51:04.731Z,90.5
2022-11-26T11:53:06.019Z,90.67
2022-11-26T11:55:07.050Z,90.49
2022-11-26T11:57:16.823Z,90.56
2022-11-26T11:59:10.406Z,90.48
2022-11-26T12:01:12.303Z,90.73
2022-11-26T12:03:14.166Z,90.84
2022-11-26T12:05:15.822Z,90.43
2022-11-26T12:07:17.613Z,90.65
2022-11-26T12:09:19.021Z,90.71
2022-11-26T12:11:20.695Z,90.69
2022-11-26T12:13:22.186Z,90.8
2022-11-26T12:15:23.904Z,90.09
2022-11-26T12:17:27.793Z,90.04
2022-11-26T12:19:26.673Z,90.15
2022-11-26T12:21:28.115Z,90.47
2022-11-26T12:23:29.925Z,89.97
2022-11-26T12:25:35.306Z,89.95
2022-11-26T12:27:32.855Z,88.85
2022-11-26T12:31:35.572Z,89.17
2022-11-26T12:33:37.135Z,89.09
2022-11-26T12:35:38.552Z,88.99
2022-11-26T12:37:40.114Z,88.61
2022-11-26T12:39:41.291Z,88.89
2022-11-26T12:41:43.100Z,89.08
2022-11-26T12:43:44.463Z,88.76
2022-11-26T12:45:46.461Z,88.59
2022-11-26T12:47:47.693Z,88.88
2022-11-26T12:49:49.380Z,88.8
2022-11-26T12:51:51.049Z,89.21
2022-11-26T12:53:52.822Z,89.03
2022-11-26T12:55:53.950Z,88.56
2022-11-26T12:57:55.599Z,88.59
2022-11-26T12:59:57.554Z,88.93
2022-11-26T13:01:58.813Z,88.9
2022-11-26T13:04:21.960Z,88.19
2022-11-26T13:06:02.004Z,88.56
2022-11-26T13:08:03.612Z,88.34
2022-11-26T13:10:05.450Z,88.27
2022-11-26T13:14:07.879Z,87.76
2022-11-26T13:16:09.206Z,87.74
2022-11-26T13:18:10.476Z,87.89
2022-11-26T13:20:11.621Z,87.77
2022-11-26T13:22:13.400Z,87.29
2022-11-26T13:24:18.630Z,87.44
2022-11-26T13:26:15.550Z,87.79
2022-11-26T13:28:16.851Z,87.45
2022-11-26T13:30:17.944Z,87.68
2022-11-26T13:32:19.415Z,87.39
2022-11-26T13:34:20.435Z,87.03
2022-11-26T13:36:21.769Z,86.9
2022-11-26T13:38:23.749Z,87.36
2022-11-26T13:40:25.237Z,87.35
2022-11-26T13:42:27.153Z,86.91
2022-11-26T13:44:28.118Z,87.28
2022-11-26T13:46:29.344Z,86.98
2022-11-26T13:48:31.117Z,87.37
2022-11-26T13:50:32.695Z,87.54
2022-11-26T13:52:34.446Z,87.88
2022-11-26T13:54:36.101Z,87.85
2022-11-26T13:55:19.954Z,87.9
2022-11-26T13:57:21.658Z,88.05
2022-11-26T13:59:28.227Z,88.09
2022-11-26T14:01:24.622Z,87.96
2022-11-26T14:03:25.788Z,88.34
2022-11-26T14:05:27.302Z,88.46
2022-11-26T14:07:28.719Z,88.43
2022-11-26T14:09:29.705Z,88.36
2022-11-26T14:11:31.549Z,88.38
2022-11-26T14:13:33.384Z,88.84
2022-11-26T14:15:34.469Z,88.92
2022-11-26T14:17:36.157Z,88.92
2022-11-26T14:19:37.639Z,88.68
2022-11-26T14:23:40.651Z,88.55
2022-11-26T14:25:42.468Z,89.13
2022-11-26T14:27:44.211Z,89.2
2022-11-26T14:29:46.180Z,89.42
2022-11-26T14:33:49.432Z,89.55
2022-11-26T14:35:50.438Z,89.76
2022-11-26T14:37:52.123Z,89.97
2022-11-26T14:39:53.093Z,89.86
2022-11-26T14:41:56.889Z,89.71
2022-11-26T14:43:56.019Z,89.8
2022-11-26T14:45:57.884Z,90.03
2022-11-26T14:47:59.599Z,89.75
2022-11-26T14:50:00.739Z,89.91
2022-11-26T14:52:02.467Z,89.93
2022-11-26T14:54:03.946Z,89.83
2022-11-26T14:56:05.420Z,89.69
2022-11-26T14:58:09.455Z,89.2
2022-11-26T15:00:08.705Z,89.38
2022-11-26T15:02:10.518Z,88.96
2022-11-26T15:04:11.501Z,89.06
2022-11-26T15:06:12.656Z,89.22
2022-11-26T15:08:13.760Z,89.17
2022-11-26T15:12:17.533Z,88.57
2022-11-26T15:16:20.629Z,88.47
2022-11-26T15:18:22.203Z,88.54
2022-11-26T15:22:24.488Z,88.71
2022-11-26T15:24:26.009Z,88.47
2022-11-26T15:26:27.312Z,88.56
2022-11-26T15:28:29.262Z,88.5
2022-11-26T15:32:32.237Z,88.2
2022-11-26T15:34:33.513Z,88.4
2022-11-26T15:36:34.527Z,88.49
2022-11-26T15:38:36.139Z,88.59
2022-11-26T15:40:37.727Z,88.82
2022-11-26T15:42:38.866Z,88.75
2022-11-26T15:44:42.712Z,88.87
2022-11-26T15:46:42.237Z,89.01
2022-11-26T15:48:51.838Z,89.14
2022-11-26T15:50:45.372Z,89.05
2022-11-26T15:52:46.535Z,89.15
2022-11-26T15:55:11.184Z,89.25
2022-11-26T15:56:49.341Z,89.25
2022-11-26T15:58:50.956Z,89.57
2022-11-26T16:00:52.144Z,89.68
2022-11-26T16:02:53.585Z,90.21
2022-11-26T16:04:54.583Z,90.72
2022-11-26T16:06:56.246Z,91.22
2022-11-26T16:08:57.303Z,91.53
2022-11-26T16:10:59.011Z,91.61
2022-11-26T16:15:02.037Z,91.68
2022-11-26T16:17:07.948Z,91.69
2022-11-26T16:19:04.861Z,91.9
2022-11-26T16:21:05.841Z,92.14
2022-11-26T16:23:07.298Z,92.28
2022-11-26T16:25:08.411Z,92.46
2022-11-26T16:27:10.132Z,92.52
2022-11-26T16:29:11.594Z,92.46
2022-11-26T16:31:13.063Z,92.51
2022-11-26T16:33:14.238Z,92.39
2022-11-26T16:35:37.928Z,92.5
2022-11-26T16:37:17.237Z,92.45
2022-11-26T16:39:19.045Z,92.53
2022-11-26T16:41:21.035Z,92.55
2022-11-26T16:43:22.025Z,92.77
2022-11-26T16:45:23.785Z,92.84
2022-11-26T16:47:25.605Z,92.46
2022-11-26T16:49:26.796Z,92.44
2022-11-26T16:51:28.509Z,92.56
2022-11-26T16:53:30.485Z,92.69
2022-11-26T16:57:34.176Z,93.02
2022-11-26T16:59:35.337Z,93.13
2022-11-26T17:01:36.573Z,92.86
2022-11-26T17:03:38.021Z,92.88
2022-11-26T17:05:39.770Z,93.06
2022-11-26T17:07:41.201Z,92.73
2022-11-26T17:09:42.702Z,92.45
2022-11-26T17:11:44.097Z,92.46
2022-11-26T17:13:45.439Z,92.48
2022-11-26T17:15:46.692Z,92.74
2022-11-26T17:17:48.455Z,92.62
2022-11-26T17:19:49.670Z,92.29
2022-11-26T17:21:50.955Z,92.72
2022-11-26T17:23:52.725Z,92.61
2022-11-26T17:25:54.279Z,92.83
2022-11-26T17:29:57.846Z,92.89
2022-11-26T17:31:59.628Z,92.88
2022-11-26T17:34:01.032Z,93.18
2022-11-26T17:36:02.796Z,93.05
2022-11-26T17:40:06.122Z,93.44
2022-11-26T17:42:07.820Z,93.58
2022-11-26T17:44:09.147Z,93.63
2022-11-26T17:46:10.495Z,93.7
2022-11-26T17:48:11.860Z,93.62
2022-11-26T17:50:13.829Z,93.81
2022-11-26T17:52:15.017Z,93.55
2022-11-26T17:54:16.413Z,93.62
2022-11-26T17:56:18.078Z,93.36
2022-11-26T17:58:19.996Z,93.46
2022-11-26T18:00:21.187Z,93.37
2022-11-26T18:02:22.610Z,93.22
2022-11-26T18:04:23.684Z,93.08
2022-11-26T18:06:25.069Z,93.34
2022-11-26T18:08:26.476Z,94.28
2022-11-26T18:12:29.491Z,95.18
2022-11-26T18:14:30.843Z,95.18
2022-11-26T18:16:32.166Z,95.23
2022-11-26T18:18:34.090Z,95.2
2022-11-26T18:22:36.906Z,95.7
2022-11-26T18:24:38.913Z,95.59
2022-11-26T18:26:40.655Z,95.38
2022-11-26T18:28:41.966Z,95.32
2022-11-26T18:30:43.136Z,95.13
2022-11-26T18:32:45.068Z,95.36
2022-11-26T18:34:46.277Z,95.53
2022-11-26T18:36:52.254Z,95.57
2022-11-26T18:38:48.857Z,95.56
2022-11-26T18:40:49.940Z,95.67
2022-11-26T18:42:51.171Z,95.59
2022-11-26T18:44:52.310Z,95.76
2022-11-26T18:46:53.450Z,95.93
2022-11-26T18:48:54.895Z,95.97
2022-11-26T18:50:56.159Z,96.01
2022-11-26T18:52:57.588Z,96.23
2022-11-26T18:54:59.462Z,96.43
2022-11-26T18:57:01.130Z,96.39
2022-11-26T18:59:02.310Z,96.42
2022-11-26T19:01:04.348Z,96.76
2022-11-26T19:05:06.488Z,96.97
2022-11-26T19:07:07.640Z,96.93
2022-11-26T19:09:09.154Z,97.07
2022-11-26T19:11:10.165Z,97.38
2022-11-26T19:13:11.832Z,97.59
2022-11-26T19:15:13.475Z,97.68
2022-11-26T19:17:14.598Z,97.65
2022-11-26T19:19:16.233Z,97.67
2022-11-26T19:21:17.397Z,97.8
2022-11-26T19:23:19.297Z,97.78
2022-11-26T19:25:20.992Z,97.68
2022-11-26T19:27:22.173Z,97.65
2022-11-26T19:29:23.531Z,97.59
2022-11-26T19:31:25.361Z,97.37
2022-11-26T19:33:27.057Z,97.53
2022-11-26T19:35:28.912Z,97.4
2022-11-26T19:37:30.697Z,97.37
2022-11-26T19:39:32.677Z,97.47
2022-11-26T19:43:36.121Z,97.48
2022-11-26T19:45:37.888Z,97.59
2022-11-26T19:47:39.701Z,97.69
2022-11-26T19:49:40.967Z,97.68
2022-11-26T19:53:43.564Z,97.75
2022-11-26T19:55:44.625Z,97.68
2022-11-26T19:57:46.476Z,97.85
2022-11-26T19:59:47.702Z,97.88
2022-11-26T20:01:49.182Z,97.8
2022-11-26T20:03:50.241Z,97.81
2022-11-26T20:05:51.340Z,97.82
2022-11-26T20:07:52.754Z,97.89
2022-11-26T20:09:54.366Z,97.92
2022-11-26T20:11:55.627Z,98.06
2022-11-26T20:13:56.785Z,98.02
2022-11-26T20:15:58.192Z,97.98
2022-11-26T20:17:59.447Z,98.01
2022-11-26T20:20:00.803Z,98.12
2022-11-26T20:22:02.202Z,98.19
2022-11-26T20:24:04.139Z,98.14
2022-11-26T20:26:05.352Z,98.16
2022-11-26T20:28:06.761Z,98.14
2022-11-26T20:30:07.966Z,98.1
2022-11-26T20:32:09.078Z,98.05
2022-11-26T20:36:12.196Z,97.96
2022-11-26T20:38:13.964Z,97.92
2022-11-26T20:40:15.177Z,98.06
2022-11-26T20:43:00.883Z,98.22
2022-11-26T20:45:02.764Z,98.37
2022-11-26T20:47:04.661Z,98.44
2022-11-26T20:49:06.405Z,98.48
2022-11-26T20:51:08.370Z,98.46
2022-11-26T20:53:10.027Z,98.49
2022-11-26T20:55:12.055Z,98.47
2022-11-26T20:57:13.265Z,98.39
2022-11-26T20:59:14.639Z,98.48
2022-11-26T21:03:17.931Z,98.47
2022-11-26T21:05:19.121Z,98.45
2022-11-26T21:07:20.452Z,98.54
2022-11-26T21:09:22.303Z,98.59
2022-11-26T21:13:24.758Z,98.65
2022-11-26T21:15:26.005Z,98.68
2022-11-26T21:17:27.210Z,98.64
2022-11-26T21:19:28.851Z,98.57
2022-11-26T21:21:30.509Z,98.54
2022-11-26T21:23:32.042Z,98.56
2022-11-26T21:25:33.416Z,98.6
2022-11-26T21:27:35.464Z,98.55
2022-11-26T21:29:37.223Z,98.5
2022-11-26T21:31:38.866Z,98.45
2022-11-26T21:33:40.648Z,98.44
2022-11-26T21:35:41.875Z,98.46
2022-11-26T21:37:43.320Z,98.43
2022-11-26T21:39:45.060Z,98.39
2022-11-26T21:41:46.390Z,98.48
2022-11-26T21:43:47.709Z,98.56
2022-11-26T21:45:49.572Z,98.62
2022-11-26T21:47:51.629Z,98.65
2022-11-26T21:49:52.705Z,98.7
2022-11-26T21:51:54.453Z,98.75
2022-11-26T21:55:57.967Z,98.68
2022-11-26T21:57:59.117Z,98.66
2022-11-26T22:00:00.753Z,98.66
2022-11-26T22:02:02.306Z,98.62
2022-11-26T22:04:04.315Z,98.57
2022-11-26T22:06:05.443Z,98.47
2022-11-26T22:08:06.955Z,98.47
2022-11-26T22:10:08.507Z,98.5
2022-11-26T22:12:10.336Z,98.55
2022-11-26T22:14:12.336Z,98.6
2022-11-26T22:16:13.669Z,98.69
2022-11-26T22:18:15.227Z,98.72
2022-11-26T22:20:17.054Z,98.74
2022-11-26T22:22:18.485Z,98.72
2022-11-26T22:24:19.563Z,98.68
2022-11-26T22:26:20.855Z,98.68
2022-11-26T22:28:25.671Z,98.71
2022-11-26T22:30:23.757Z,98.73
2022-11-26T22:34:26.841Z,98.73
2022-11-26T22:36:28.429Z,98.73
2022-11-26T22:38:30.407Z,98.71
2022-11-26T22:40:31.635Z,98.69
2022-11-26T22:44:34.426Z,98.68
2022-11-26T22:46:35.493Z,98.68
2022-11-26T22:48:37.428Z,98.66
2022-11-26T22:50:38.869Z,98.63
2022-11-26T22:54:42.058Z,98.66
2022-11-26T22:56:43.503Z,98.66
2022-11-26T22:58:45.232Z,98.66
2022-11-26T23:00:46.363Z,98.66
2022-11-26T23:02:48.303Z,98.62
2022-11-26T23:04:49.701Z,98.64
2022-11-26T23:06:51.623Z,98.65
2022-11-26T23:08:52.728Z,98.67
2022-11-26T23:10:54.243Z,98.68
2022-11-26T23:12:55.618Z,98.71
2022-11-26T23:14:57.544Z,98.7
2022-11-26T23:16:59.142Z,98.69
2022-11-26T23:19:00.856Z,98.68
2022-11-26T23:21:02.380Z,98.68
2022-11-26T23:23:03.529Z,98.67
2022-11-26T23:27:07.143Z,98.66
2022-11-26T23:29:08.921Z,98.66
2022-11-26T23:31:10.113Z,98.66
2022-11-26T23:33:11.646Z,98.65
2022-11-26T23:37:14.390Z,98.59
2022-11-26T23:39:15.908Z,98.61
2022-11-26T23:41:17.669Z,98.63
2022-11-26T23:43:19.126Z,98.6
2022-11-26T23:45:20.287Z,98.59
2022-11-26T23:47:22.070Z,98.6
2022-11-26T23:49:23.170Z,98.61
2022-11-26T23:51:24.845Z,98.63
2022-11-26T23:53:26.155Z,98.62
2022-11-26T23:55:28.079Z,98.65
2022-11-26T23:57:29.215Z,98.66
2022-11-26T23:59:30.487Z,98.67
